Time;durP1;ratioP1;P1;durP2;ratioP2;P2;SDS_P1;SDS_P2;PMS_P1;PMS_P2;Temp;Humidity;BMP_temperature;BMP_pressure;BME280_temperature;BME280_humidity;BME280_pressure;Samples;Min_cycle;Max_cycle;Signal;HPM_P1;HPM_P2
2022/10/30 00:00:00;;;;;;;11.53;5.47;;;16.40;99.90;;;;;;5032434;28;20218;-87
2022/10/30 00:02:26;;;;;;;15.73;6.13;;;16.50;99.90;;;;;;5035530;28;20214;-86
2022/10/30 00:04:51;;;;;;;9.80;4.73;;;16.50;99.90;;;;;;5034645;28;20538;-88
2022/10/30 00:07:17;;;;;;;9.80;5.23;;;16.50;99.90;;;;;;5033914;28;20181;-87
2022/10/30 00:09:42;;;;;;;10.67;5.60;;;16.50;99.90;;;;;;5034208;28;20269;-87
2022/10/30 00:12:08;;;;;;;11.57;5.63;;;16.40;99.90;;;;;;5033859;28;20182;-87
2022/10/30 00:14:33;;;;;;;15.40;5.90;;;16.50;99.90;;;;;;5034572;28;20331;-87
2022/10/30 00:16:59;;;;;;;19.87;6.83;;;16.40;99.90;;;;;;5032903;28;20198;-86
2022/10/30 00:19:24;;;;;;;11.60;5.80;;;16.40;99.90;;;;;;5033881;28;20210;-87
2022/10/30 00:21:50;;;;;;;13.10;5.70;;;16.40;99.90;;;;;;5034325;28;20178;-87
2022/10/30 00:24:15;;;;;;;13.90;5.87;;;16.40;99.90;;;;;;5035142;28;20179;-87
2022/10/30 00:26:41;;;;;;;11.63;6.20;;;16.40;99.90;;;;;;5035442;28;20231;-87
2022/10/30 00:29:07;;;;;;;9.70;6.40;;;16.30;99.90;;;;;;5033285;28;20535;-87
2022/10/30 00:31:32;;;;;;;12.83;6.00;;;16.30;99.90;;;;;;5033818;28;20653;-87
2022/10/30 00:33:58;;;;;;;19.23;6.00;;;16.30;99.90;;;;;;5034137;28;20201;-87
2022/10/30 00:36:24;;;;;;;12.73;5.47;;;16.20;99.90;;;;;;5033965;28;20658;-87
2022/10/30 00:38:49;;;;;;;11.30;5.60;;;16.20;99.90;;;;;;5035086;28;20182;-87
2022/10/30 00:41:21;;;;;;;13.03;5.63;;;16.20;99.90;;;;;;5034056;28;20432;-87
2022/10/30 00:43:47;;;;;;;11.13;5.80;;;16.10;99.90;;;;;;5034402;28;20158;-87
2022/10/30 00:46:22;;;;;;;15.87;5.93;;;16.10;99.90;;;;;;5041174;28;20462;-88
2022/10/30 00:48:55;;;;;;;12.40;6.03;;;16.10;99.90;;;;;;5035062;28;20419;-87
2022/10/30 00:51:21;;;;;;;18.00;6.07;;;16.00;99.90;;;;;;5034391;28;20829;-87
2022/10/30 00:53:47;;;;;;;7.73;5.20;;;16.00;99.90;;;;;;5017066;28;20442;-88
2022/10/30 00:56:15;;;;;;;10.97;6.07;;;16.00;99.90;;;;;;5033924;28;20507;-87
2022/10/30 00:58:47;;;;;;;11.67;6.30;;;16.00;99.90;;;;;;5033327;28;20471;-87
2022/10/30 01:01:18;;;;;;;13.43;5.90;;;16.00;99.90;;;;;;5034777;28;20409;-87
2022/10/30 01:03:46;;;;;;;12.10;6.00;;;16.00;99.90;;;;;;5035124;28;20379;-87
2022/10/30 01:06:14;;;;;;;17.07;6.27;;;16.00;99.90;;;;;;5033417;28;20806;-86
2022/10/30 01:08:40;;;;;;;9.27;5.63;;;15.90;99.90;;;;;;5034958;28;20492;-86
2022/10/30 01:11:07;;;;;;;11.10;6.10;;;15.90;99.90;;;;;;5033099;28;20420;-87
2022/10/30 01:13:33;;;;;;;6.30;4.80;;;15.90;99.90;;;;;;5033430;28;20429;-87
2022/10/30 01:16:21;;;;;;;11.43;6.30;;;15.80;99.90;;;;;;5032869;28;20441;-87
2022/10/30 01:19:04;;;;;;;11.10;5.53;;;15.90;99.90;;;;;;5030135;28;20423;-90
2022/10/30 01:21:41;;;;;;;13.23;5.23;;;15.80;99.90;;;;;;5033907;28;20480;-86
2022/10/30 01:24:25;;;;;;;12.50;6.50;;;15.70;99.90;;;;;;5035125;28;20957;-86
2022/10/30 01:26:56;;;;;;;11.90;6.07;;;15.70;99.90;;;;;;5033299;28;20428;-87
2022/10/30 01:29:58;;;;;;;13.20;6.23;;;15.60;99.90;;;;;;5033056;28;20452;-87
2022/10/30 01:32:52;;;;;;;11.47;5.90;;;15.60;99.90;;;;;;5034508;28;20470;-86
2022/10/30 01:35:51;;;;;;;8.73;5.60;;;15.50;99.90;;;;;;5034362;28;20390;-86
2022/10/30 01:38:30;;;;;;;10.57;5.53;;;15.40;99.90;;;;;;5034091;28;20743;-87
2022/10/30 01:40:56;;;;;;;11.20;6.00;;;15.30;99.90;;;;;;5032921;28;20472;-87
2022/10/30 01:43:22;;;;;;;11.40;6.60;;;15.20;99.90;;;;;;5032873;28;20440;-85
2022/10/30 01:46:25;;;;;;;8.43;5.10;;;15.10;99.90;;;;;;5016976;28;20174;-87
2022/10/30 01:49:10;;;;;;;11.73;6.27;;;15.00;99.90;;;;;;5000082;28;20276;-87
2022/10/30 01:51:46;;;;;;;11.53;6.47;;;14.90;99.90;;;;;;5034152;28;20397;-86
2022/10/30 01:54:46;;;;;;;12.67;5.70;;;14.90;99.90;;;;;;5032876;28;20454;-87
2022/10/30 01:57:30;;;;;;;12.40;6.47;;;14.80;99.90;;;;;;5033064;28;20431;-87
2022/10/30 02:00:02;;;;;;;13.70;6.00;;;14.80;99.90;;;;;;5034554;28;20440;-87
2022/10/30 02:02:28;;;;;;;9.87;5.70;;;14.70;99.90;;;;;;5033511;28;20474;-86
2022/10/30 02:04:54;;;;;;;17.60;6.30;;;14.70;99.90;;;;;;5032364;28;20416;-86
2022/10/30 02:07:19;;;;;;;9.83;4.97;;;14.70;99.90;;;;;;5034266;28;20405;-86
2022/10/30 02:09:45;;;;;;;14.90;6.47;;;14.60;99.90;;;;;;5017033;28;20194;-87
2022/10/30 02:12:11;;;;;;;12.60;5.87;;;14.50;99.90;;;;;;5033006;28;20236;-87
2022/10/30 02:14:42;;;;;;;10.13;6.70;;;14.50;99.90;;;;;;5032837;28;20209;-86
2022/10/30 02:17:10;;;;;;;14.77;5.50;;;14.40;99.90;;;;;;5032609;28;20413;-86
2022/10/30 02:19:36;;;;;;;12.30;6.00;;;14.40;99.90;;;;;;5033593;28;20499;-88
2022/10/30 02:22:02;;;;;;;17.20;6.50;;;14.40;99.90;;;;;;5032586;28;20888;-86
2022/10/30 02:24:28;;;;;;;10.87;5.83;;;14.30;99.90;;;;;;5037204;28;20319;-87
2022/10/30 02:26:54;;;;;;;9.03;5.70;;;14.30;99.90;;;;;;5015019;28;20443;-85
2022/10/30 02:29:20;;;;;;;16.13;6.90;;;14.30;99.90;;;;;;5025157;28;20413;-87
2022/10/30 02:31:47;;;;;;;9.57;5.43;;;14.30;99.90;;;;;;5023744;28;20178;-86
2022/10/30 02:34:13;;;;;;;8.87;4.90;;;14.30;99.90;;;;;;5040624;28;20746;-85
2022/10/30 02:36:38;;;;;;;8.47;6.03;;;14.30;99.90;;;;;;5040353;28;20416;-86
2022/10/30 02:39:05;;;;;;;12.00;5.40;;;14.30;99.90;;;;;;5022782;28;20442;-86
2022/10/30 02:41:31;;;;;;;12.60;5.53;;;14.20;99.90;;;;;;5023475;28;20185;-86
2022/10/30 02:43:57;;;;;;;9.90;5.73;;;14.20;99.90;;;;;;5021934;28;20429;-87
2022/10/30 02:46:23;;;;;;;12.10;6.00;;;14.10;99.90;;;;;;5022555;28;20504;-87
2022/10/30 02:48:48;;;;;;;15.43;6.30;;;14.00;99.90;;;;;;5040347;28;20208;-86
2022/10/30 02:51:14;;;;;;;11.57;5.60;;;14.00;99.90;;;;;;5039676;28;20586;-86
2022/10/30 02:53:40;;;;;;;11.80;5.60;;;13.90;99.90;;;;;;5042837;28;20182;-85
2022/10/30 02:56:11;;;;;;;11.37;5.50;;;13.90;99.90;;;;;;5022782;28;20190;-87
2022/10/30 02:58:37;;;;;;;8.50;5.83;;;13.90;99.90;;;;;;5040268;28;20162;-87
2022/10/30 03:01:10;;;;;;;13.50;5.27;;;13.90;99.90;;;;;;5040057;28;20475;-87
2022/10/30 03:03:36;;;;;;;8.67;5.37;;;13.90;99.90;;;;;;5040273;28;20296;-86
2022/10/30 03:06:04;;;;;;;8.63;4.73;;;13.80;99.90;;;;;;5038435;28;20395;-86
2022/10/30 03:08:30;;;;;;;13.77;5.60;;;13.80;99.90;;;;;;5022633;28;20420;-86
2022/10/30 03:11:04;;;;;;;12.60;5.13;;;13.70;99.90;;;;;;5039109;28;20420;-87
2022/10/30 03:13:32;;;;;;;9.80;5.00;;;13.70;99.90;;;;;;5039751;28;20184;-86
2022/10/30 03:16:06;;;;;;;9.43;4.90;;;13.70;99.90;;;;;;5038885;28;20413;-86
2022/10/30 03:18:32;;;;;;;8.07;5.73;;;13.70;99.90;;;;;;5038492;28;20428;-86
2022/10/30 03:21:00;;;;;;;8.37;5.30;;;13.60;99.90;;;;;;5037998;28;20689;-87
2022/10/30 03:23:27;;;;;;;11.83;5.80;;;13.60;99.90;;;;;;5040221;28;20429;-87
2022/10/30 03:25:54;;;;;;;7.30;5.17;;;13.60;99.90;;;;;;5038849;28;20447;-87
2022/10/30 03:28:22;;;;;;;13.03;6.20;;;13.60;99.90;;;;;;5038633;28;20482;-86
2022/10/30 03:30:48;;;;;;;9.00;5.33;;;13.50;99.90;;;;;;5039877;28;20818;-86
2022/10/30 03:33:14;;;;;;;9.03;5.70;;;13.50;99.90;;;;;;5039523;28;20470;-86
2022/10/30 03:35:39;;;;;;;11.10;5.50;;;13.50;99.90;;;;;;5035733;28;20497;-86
2022/10/30 03:38:05;;;;;;;11.90;5.17;;;13.40;99.90;;;;;;5019155;28;20179;-86
2022/10/30 03:40:30;;;;;;;14.17;5.23;;;13.40;99.90;;;;;;5036837;28;20654;-86
2022/10/30 03:42:56;;;;;;;16.87;5.30;;;13.40;99.90;;;;;;5018591;28;20190;-87
2022/10/30 03:45:21;;;;;;;6.77;5.30;;;13.30;99.90;;;;;;5036493;28;20178;-86
2022/10/30 03:47:47;;;;;;;11.10;5.17;;;13.30;99.90;;;;;;5035820;28;20519;-86
2022/10/30 03:50:13;;;;;;;10.73;5.40;;;13.20;99.90;;;;;;5035462;28;20205;-86
2022/10/30 03:52:38;;;;;;;7.30;4.70;;;13.20;99.90;;;;;;5036733;28;20185;-86
2022/10/30 03:55:04;;;;;;;12.50;5.17;;;13.20;99.90;;;;;;5035020;28;20234;-87
2022/10/30 03:57:30;;;;;;;10.00;5.30;;;13.20;99.90;;;;;;5035240;28;20227;-86
2022/10/30 03:59:55;;;;;;;12.80;5.00;;;13.10;99.90;;;;;;5035037;28;20862;-86
2022/10/30 04:02:21;;;;;;;10.57;5.23;;;13.10;99.90;;;;;;5034705;28;20201;-86
2022/10/30 04:04:46;;;;;;;12.13;5.27;;;13.10;99.90;;;;;;5034313;28;20265;-86
2022/10/30 04:07:12;;;;;;;9.90;4.90;;;13.00;99.90;;;;;;5035135;28;20186;-87
2022/10/30 04:09:37;;;;;;;9.53;5.50;;;13.00;99.90;;;;;;5034584;28;20815;-86
2022/10/30 04:12:04;;;;;;;15.83;5.70;;;13.00;99.90;;;;;;5034156;28;20185;-86
2022/10/30 04:14:29;;;;;;;13.90;5.37;;;12.90;99.90;;;;;;5035802;28;20194;-86
2022/10/30 04:16:55;;;;;;;10.40;5.20;;;12.90;99.90;;;;;;5035808;28;20432;-87
2022/10/30 04:19:20;;;;;;;12.50;5.37;;;12.80;99.90;;;;;;5034634;28;20210;-87
2022/10/30 04:21:46;;;;;;;9.17;4.73;;;12.80;99.90;;;;;;5034097;28;20201;-86
2022/10/30 04:24:15;;;;;;;10.27;5.50;;;12.80;99.90;;;;;;5034645;28;20623;-85
2022/10/30 04:26:40;;;;;;;10.60;5.40;;;12.70;99.90;;;;;;5035071;28;20520;-87
2022/10/30 04:29:06;;;;;;;10.37;5.97;;;12.70;99.90;;;;;;5035709;28;20460;-87
2022/10/30 04:31:31;;;;;;;11.07;5.83;;;12.60;99.90;;;;;;5016327;28;20193;-86
2022/10/30 04:33:57;;;;;;;7.37;5.23;;;12.50;99.90;;;;;;5030494;28;20526;-87
2022/10/30 04:36:29;;;;;;;16.90;5.13;;;12.50;99.90;;;;;;5017253;28;20262;-86
2022/10/30 04:38:54;;;;;;;6.43;4.30;;;12.50;99.90;;;;;;5034748;28;20532;-86
2022/10/30 04:41:20;;;;;;;12.20;5.10;;;12.50;99.90;;;;;;5033510;28;20431;-88
2022/10/30 04:43:48;;;;;;;8.63;4.80;;;12.40;99.90;;;;;;5034304;28;20654;-86
2022/10/30 04:46:13;;;;;;;12.00;5.00;;;12.40;99.90;;;;;;5033863;28;20201;-86
2022/10/30 04:48:39;;;;;;;6.47;5.40;;;12.40;99.90;;;;;;5033874;28;20417;-87
2022/10/30 04:51:06;;;;;;;10.80;6.00;;;12.30;99.90;;;;;;5012027;28;20190;-87
2022/10/30 04:53:31;;;;;;;11.93;5.23;;;12.20;99.90;;;;;;5014653;28;20421;-88
2022/10/30 04:55:57;;;;;;;10.37;6.03;;;12.20;99.90;;;;;;5019923;28;20467;-89
2022/10/30 04:58:22;;;;;;;7.30;4.80;;;12.20;99.90;;;;;;5034043;28;20553;-87
2022/10/30 05:00:48;;;;;;;12.30;5.67;;;12.10;99.90;;;;;;5034281;28;20213;-88
2022/10/30 05:03:19;;;;;;;9.73;5.50;;;12.10;99.90;;;;;;5034217;28;20225;-87
2022/10/30 05:05:45;;;;;;;10.03;5.50;;;12.10;99.90;;;;;;5033830;28;20969;-87
2022/10/30 05:08:11;;;;;;;7.57;5.40;;;12.00;99.90;;;;;;5033577;28;20440;-87
2022/10/30 05:10:40;;;;;;;8.10;4.70;;;12.00;99.90;;;;;;5013919;28;20504;-87
2022/10/30 05:13:05;;;;;;;8.20;5.70;;;12.00;99.90;;;;;;5022397;28;20201;-87
2022/10/30 05:15:31;;;;;;;9.97;5.60;;;12.00;99.90;;;;;;5035099;28;20425;-87
2022/10/30 05:17:56;;;;;;;17.93;5.57;;;12.00;99.90;;;;;;5034179;28;20217;-87
2022/10/30 05:20:22;;;;;;;10.33;5.63;;;12.00;99.90;;;;;;5033187;28;20210;-87
2022/10/30 05:22:55;;;;;;;10.40;5.73;;;12.00;99.90;;;;;;5033379;28;20186;-87
2022/10/30 05:25:21;;;;;;;10.63;6.60;;;12.10;99.90;;;;;;5032761;28;20178;-87
2022/10/30 05:27:47;;;;;;;12.33;5.40;;;12.10;99.90;;;;;;5035042;28;20836;-87
2022/10/30 05:30:13;;;;;;;9.30;4.80;;;12.00;99.90;;;;;;5000554;28;20421;-87
2022/10/30 05:32:38;;;;;;;9.63;5.00;;;12.00;99.90;;;;;;5016139;28;20590;-87
2022/10/30 05:35:04;;;;;;;10.07;4.20;;;12.00;99.90;;;;;;5032779;28;20178;-88
2022/10/30 05:37:30;;;;;;;10.20;4.97;;;12.00;99.90;;;;;;5017061;28;20200;-87
2022/10/30 05:39:55;;;;;;;8.63;5.00;;;11.90;99.90;;;;;;5032333;28;20260;-87
2022/10/30 05:42:21;;;;;;;10.73;5.50;;;11.90;99.90;;;;;;5032560;28;20189;-87
2022/10/30 05:44:46;;;;;;;10.17;5.03;;;11.90;99.90;;;;;;5034079;28;20185;-87
2022/10/30 05:47:12;;;;;;;6.03;4.60;;;11.90;99.90;;;;;;4999627;28;20182;-87
2022/10/30 05:49:38;;;;;;;9.03;4.50;;;11.90;99.90;;;;;;5033290;28;20186;-87
2022/10/30 05:52:03;;;;;;;11.57;5.40;;;11.90;99.90;;;;;;5033433;28;20660;-87
2022/10/30 05:54:29;;;;;;;10.17;6.37;;;11.80;99.90;;;;;;5015849;28;20720;-87
2022/10/30 05:56:56;;;;;;;10.17;5.50;;;11.70;99.90;;;;;;5032747;28;20277;-87
2022/10/30 05:59:22;;;;;;;10.50;5.63;;;11.70;99.90;;;;;;5032148;28;20213;-87
2022/10/30 06:01:48;;;;;;;9.93;4.93;;;11.70;99.90;;;;;;5033546;28;20523;-88
2022/10/30 06:04:14;;;;;;;12.33;5.50;;;11.70;99.90;;;;;;5032989;28;20583;-87
2022/10/30 06:06:39;;;;;;;13.57;4.87;;;11.70;99.90;;;;;;5032130;28;20206;-87
2022/10/30 06:09:05;;;;;;;8.37;5.33;;;11.70;99.90;;;;;;5031430;28;20325;-89
2022/10/30 06:11:30;;;;;;;10.57;5.70;;;11.60;99.90;;;;;;5031603;28;20178;-87
2022/10/30 06:13:56;;;;;;;12.23;5.93;;;11.60;99.90;;;;;;5031848;28;20229;-87
2022/10/30 06:16:22;;;;;;;14.03;6.50;;;11.60;99.90;;;;;;5032339;28;20186;-87
2022/10/30 06:18:47;;;;;;;9.30;6.30;;;11.50;99.90;;;;;;5031964;28;20683;-86
2022/10/30 06:21:13;;;;;;;10.30;5.10;;;11.50;99.90;;;;;;5032843;28;20505;-86
2022/10/30 06:23:38;;;;;;;8.87;5.70;;;11.50;99.90;;;;;;5021153;28;20194;-86
2022/10/30 06:26:04;;;;;;;13.37;6.00;;;11.50;99.90;;;;;;5011272;28;20193;-87
2022/10/30 06:28:30;;;;;;;16.50;5.80;;;11.40;99.90;;;;;;5026142;28;20218;-86
2022/10/30 06:30:55;;;;;;;15.27;4.83;;;11.40;99.90;;;;;;5025545;28;20194;-87
2022/10/30 06:33:21;;;;;;;11.23;4.97;;;11.40;99.90;;;;;;5031361;28;20178;-87
2022/10/30 06:35:48;;;;;;;10.67;6.40;;;11.40;99.90;;;;;;5031808;28;20232;-86
2022/10/30 06:38:14;;;;;;;11.00;5.80;;;11.40;99.90;;;;;;5032066;28;20943;-85
2022/10/30 06:40:40;;;;;;;13.73;5.70;;;11.40;99.90;;;;;;5031567;28;20463;-86
2022/10/30 06:43:06;;;;;;;9.07;4.70;;;11.40;99.90;;;;;;5032620;28;20793;-87
2022/10/30 06:45:32;;;;;;;8.73;5.60;;;11.40;99.90;;;;;;5032030;28;20439;-87
2022/10/30 06:48:01;;;;;;;8.73;5.50;;;11.40;99.90;;;;;;5032800;28;20182;-87
2022/10/30 06:50:26;;;;;;;14.67;6.00;;;11.40;99.90;;;;;;5031444;28;20425;-87
2022/10/30 06:52:54;;;;;;;13.50;5.13;;;11.40;99.90;;;;;;5032202;28;20800;-87
2022/10/30 06:55:20;;;;;;;8.60;5.10;;;11.40;99.90;;;;;;5032779;28;20240;-87
2022/10/30 06:57:51;;;;;;;11.37;5.70;;;11.40;99.90;;;;;;5015617;28;20425;-86
2022/10/30 07:00:17;;;;;;;15.00;6.17;;;11.40;99.90;;;;;;5015339;28;20461;-87
2022/10/30 07:02:43;;;;;;;8.80;5.67;;;11.40;99.90;;;;;;5015166;28;20440;-87
2022/10/30 07:05:08;;;;;;;15.60;6.50;;;11.40;99.90;;;;;;5033452;28;20634;-87
2022/10/30 07:07:34;;;;;;;14.03;5.47;;;11.50;99.90;;;;;;5031716;28;20546;-86
2022/10/30 07:09:59;;;;;;;11.40;6.30;;;11.50;99.90;;;;;;5011650;28;20236;-87
2022/10/30 07:12:25;;;;;;;8.00;5.40;;;11.50;99.90;;;;;;5031397;28;20717;-87
2022/10/30 07:14:50;;;;;;;10.63;5.90;;;11.60;99.90;;;;;;5035672;28;20181;-87
2022/10/30 07:17:16;;;;;;;9.83;5.80;;;11.60;99.90;;;;;;5034661;28;20236;-86
2022/10/30 07:19:42;;;;;;;14.03;5.20;;;11.70;99.90;;;;;;5035585;28;20213;-86
2022/10/30 07:22:07;;;;;;;11.87;6.00;;;11.80;99.90;;;;;;5032605;28;20195;-87
2022/10/30 07:24:33;;;;;;;12.33;6.17;;;11.90;99.90;;;;;;5036456;28;20193;-86
2022/10/30 07:26:58;;;;;;;13.70;5.57;;;11.90;99.90;;;;;;5038280;28;20191;-87
2022/10/30 07:29:24;;;;;;;10.30;5.67;;;12.00;99.90;;;;;;5036755;28;20194;-87
2022/10/30 07:31:49;;;;;;;10.13;5.20;;;12.10;99.90;;;;;;5036709;28;20203;-86
2022/10/30 07:34:16;;;;;;;11.23;5.60;;;12.20;99.90;;;;;;5037601;28;20186;-86
2022/10/30 07:36:42;;;;;;;12.00;6.37;;;12.30;99.90;;;;;;5036311;28;20232;-87
2022/10/30 07:39:07;;;;;;;10.43;5.47;;;12.40;99.90;;;;;;5037482;28;20437;-87
2022/10/30 07:41:33;;;;;;;12.27;5.80;;;12.50;99.90;;;;;;5037168;28;20194;-87
2022/10/30 07:43:59;;;;;;;10.30;5.77;;;12.60;99.90;;;;;;5036852;28;20178;-87
2022/10/30 07:46:24;;;;;;;9.57;5.50;;;12.70;99.90;;;;;;5019236;28;20264;-87
2022/10/30 07:48:50;;;;;;;8.17;6.20;;;12.80;99.90;;;;;;5020005;28;20265;-87
2022/10/30 07:51:15;;;;;;;11.80;5.67;;;12.90;99.90;;;;;;5020595;28;20218;-87
2022/10/30 07:53:41;;;;;;;12.37;5.40;;;13.00;99.90;;;;;;5035785;28;20193;-86
2022/10/30 07:56:06;;;;;;;15.20;6.70;;;13.20;99.90;;;;;;5036331;28;20265;-90
2022/10/30 07:58:32;;;;;;;13.17;5.67;;;13.30;99.90;;;;;;5036255;28;20178;-86
2022/10/30 08:00:57;;;;;;;15.87;5.60;;;13.50;99.90;;;;;;5037205;28;20214;-86
2022/10/30 08:03:23;;;;;;;7.23;5.00;;;13.60;99.90;;;;;;5036215;28;20627;-86
2022/10/30 08:05:49;;;;;;;8.60;5.80;;;13.70;99.90;;;;;;5036549;28;20187;-82
2022/10/30 08:08:14;;;;;;;8.07;4.63;;;13.90;99.90;;;;;;5032143;28;20647;-82
2022/10/30 08:10:40;;;;;;;9.10;4.73;;;14.10;99.90;;;;;;5033460;28;20240;-80
2022/10/30 08:13:05;;;;;;;9.27;4.90;;;14.20;99.90;;;;;;5032151;28;20225;-79
2022/10/30 08:15:31;;;;;;;9.13;4.63;;;14.40;99.90;;;;;;5033370;28;20178;-82
2022/10/30 08:17:57;;;;;;;11.67;4.60;;;14.50;99.90;;;;;;5000151;28;20205;-82
2022/10/30 08:20:23;;;;;;;18.27;5.57;;;14.60;99.90;;;;;;5033423;28;20850;-82
2022/10/30 08:22:54;;;;;;;13.23;5.43;;;14.80;99.90;;;;;;5033006;28;20235;-90
2022/10/30 08:25:22;;;;;;;7.93;5.30;;;14.90;99.90;;;;;;5036925;28;20821;-89
2022/10/30 08:28:00;;;;;;;7.63;4.70;;;15.00;99.90;;;;;;5037556;28;20804;-90
2022/10/30 08:30:29;;;;;;;6.87;4.90;;;15.10;99.90;;;;;;5031951;28;20940;-91
2022/10/30 08:32:58;;;;;;;12.77;5.30;;;15.20;99.90;;;;;;5035631;28;20429;-90
2022/10/30 08:35:24;;;;;;;14.43;5.03;;;15.30;99.90;;;;;;5034084;28;20455;-90
2022/10/30 08:37:57;;;;;;;11.83;5.73;;;15.40;99.90;;;;;;5034397;28;20499;-90
2022/10/30 08:40:23;;;;;;;13.27;5.50;;;15.50;99.90;;;;;;5035689;28;20453;-90
2022/10/30 08:42:53;;;;;;;13.57;5.20;;;15.50;99.90;;;;;;5034556;28;20433;-90
2022/10/30 08:45:20;;;;;;;7.10;4.67;;;15.60;99.90;;;;;;5030279;28;20431;-90
2022/10/30 08:47:46;;;;;;;10.60;6.03;;;15.80;99.90;;;;;;5006748;28;20518;-87
2022/10/30 08:50:12;;;;;;;13.27;5.83;;;15.80;99.90;;;;;;5029587;28;20456;-89
2022/10/30 08:52:37;;;;;;;8.63;5.27;;;16.00;99.90;;;;;;5030573;28;20460;-89
2022/10/30 08:55:03;;;;;;;8.40;5.20;;;16.10;99.90;;;;;;5030212;28;20260;-90
2022/10/30 08:57:35;;;;;;;6.90;4.77;;;16.20;99.90;;;;;;5030556;28;20715;-90
2022/10/30 09:00:00;;;;;;;9.90;5.30;;;16.30;99.90;;;;;;5033607;28;20460;-91
2022/10/30 09:02:26;;;;;;;10.10;4.50;;;16.40;99.90;;;;;;5033329;28;20420;-90
2022/10/30 09:04:51;;;;;;;8.07;4.97;;;16.60;99.90;;;;;;5034000;28;20204;-90
2022/10/30 09:07:17;;;;;;;12.03;5.10;;;16.80;99.90;;;;;;5032736;28;20211;-90
2022/10/30 09:09:42;;;;;;;11.47;5.40;;;17.00;99.90;;;;;;5017527;28;20198;-90
2022/10/30 09:12:08;;;;;;;10.40;4.90;;;17.20;99.90;;;;;;5012923;28;20190;-90
2022/10/30 09:14:33;;;;;;;9.17;4.83;;;17.40;99.90;;;;;;5010206;28;20182;-91
2022/10/30 09:16:59;;;;;;;13.10;5.40;;;17.70;99.90;;;;;;5010470;28;20213;-89
2022/10/30 09:19:27;;;;;;;9.23;4.37;;;17.90;99.90;;;;;;5030185;28;20217;-87
2022/10/30 09:21:53;;;;;;;5.90;4.40;;;18.20;99.90;;;;;;5036724;28;20519;-92
2022/10/30 09:24:19;;;;;;;10.10;5.50;;;18.40;99.90;;;;;;5017450;28;20415;-90
2022/10/30 09:26:44;;;;;;;8.73;4.20;;;18.60;99.90;;;;;;5019174;28;20194;-90
2022/10/30 09:29:10;;;;;;;13.60;5.30;;;18.80;99.90;;;;;;5041274;28;20491;-91
2022/10/30 09:31:36;;;;;;;11.63;4.23;;;19.00;99.90;;;;;;5019070;28;20199;-91
2022/10/30 09:34:01;;;;;;;12.57;4.50;;;19.10;99.90;;;;;;5028512;28;20193;-87
2022/10/30 09:36:27;;;;;;;5.80;4.30;;;19.40;99.90;;;;;;5036872;28;20286;-86
2022/10/30 09:38:54;;;;;;;11.37;4.70;;;19.70;99.90;;;;;;5017097;28;20201;-86
2022/10/30 09:41:45;;;;;;;5.83;4.23;;;19.80;99.90;;;;;;5033929;28;20222;-87
2022/10/30 09:44:53;;;;;;;11.27;4.60;;;20.10;99.90;;;;;;5032308;28;20826;-84
2022/10/30 09:47:36;;;;;;;6.80;3.90;;;20.30;99.90;;;;;;5029619;28;20420;-79
2022/10/30 09:50:17;;;;;;;8.57;4.30;;;20.50;99.90;;;;;;5022776;28;20511;-79
2022/10/30 09:53:10;;;;;;;8.00;4.47;;;20.60;99.90;;;;;;5031094;28;20424;-79
2022/10/30 09:56:02;;;;;;;9.20;4.47;;;20.80;99.90;;;;;;5025503;28;20472;-79
2022/10/30 09:58:52;;;;;;;7.17;4.47;;;21.10;99.90;;;;;;5027979;28;20667;-79
2022/10/30 10:01:20;;;;;;;7.00;3.97;;;21.10;99.90;;;;;;5031082;28;20526;-79
2022/10/30 10:04:15;;;;;;;7.33;4.30;;;21.30;99.90;;;;;;5032743;28;20468;-79
2022/10/30 10:06:45;;;;;;;12.23;4.00;;;21.30;99.90;;;;;;5031808;28;20779;-79
2022/10/30 10:09:21;;;;;;;11.67;3.70;;;21.20;99.90;;;;;;5030207;28;20417;-79
2022/10/30 10:12:09;;;;;;;8.20;5.07;;;21.50;99.90;;;;;;5032315;28;20432;-79
2022/10/30 10:14:39;;;;;;;10.40;4.40;;;21.80;99.90;;;;;;5031416;28;20432;-81
2022/10/30 10:17:14;;;;;;;11.27;4.57;;;21.80;99.90;;;;;;5031279;28;20405;-81
2022/10/30 10:19:58;;;;;;;17.93;7.40;;;21.80;99.90;;;;;;5031439;28;20460;-81
2022/10/30 10:22:23;;;;;;;10.03;5.13;;;21.90;99.90;;;;;;5029836;28;20428;-81
2022/10/30 10:24:50;;;;;;;8.50;4.40;;;22.00;99.90;;;;;;5021619;28;20436;-81
2022/10/30 10:27:49;;;;;;;12.33;4.33;;;22.50;99.90;;;;;;5011756;28;20206;-81
2022/10/30 10:30:20;;;;;;;8.60;4.70;;;22.70;99.90;;;;;;5029623;28;20812;-81
2022/10/30 10:33:07;;;;;;;9.07;4.37;;;22.80;99.90;;;;;;5031167;28;20536;-82
2022/10/30 10:36:00;;;;;;;8.70;4.07;;;22.90;99.90;;;;;;5031252;28;20424;-81
2022/10/30 10:38:44;;;;;;;15.77;4.87;;;23.30;99.90;;;;;;5031463;28;20476;-81
2022/10/30 10:41:32;;;;;;;10.43;4.53;;;24.00;99.90;;;;;;5030810;28;20813;-82
2022/10/30 10:44:22;;;;;;;15.13;4.83;;;24.40;99.90;;;;;;5029863;28;20441;-91
2022/10/30 10:47:06;;;;;;;7.50;4.17;;;24.20;99.90;;;;;;5036957;28;20428;-91
2022/10/30 10:49:49;;;;;;;12.07;4.60;;;24.60;99.90;;;;;;5025704;28;20788;-82
2022/10/30 10:52:23;;;;;;;11.80;5.10;;;25.10;99.90;;;;;;5032738;28;20476;-82
2022/10/30 10:54:49;;;;;;;10.20;4.90;;;25.20;99.90;;;;;;5033884;28;20867;-82
2022/10/30 10:57:37;;;;;;;9.77;4.53;;;24.90;99.90;;;;;;5035569;28;20515;-82
2022/10/30 11:00:15;;;;;;;6.53;4.23;;;24.70;99.90;;;;;;5034177;28;20662;-82
2022/10/30 11:02:57;;;;;;;8.07;3.77;;;24.70;99.90;;;;;;5021106;28;20440;-82
2022/10/30 11:05:38;;;;;;;10.83;5.10;;;24.80;99.90;;;;;;5035166;28;20467;-83
2022/10/30 11:08:14;;;;;;;7.50;5.00;;;24.90;99.90;;;;;;5026931;28;20435;-82
2022/10/30 11:10:39;;;;;;;7.97;3.97;;;25.30;99.90;;;;;;5034355;28;20417;-80
2022/10/30 11:13:05;;;;;;;12.63;4.60;;;25.00;99.90;;;;;;5016269;28;20424;-81
2022/10/30 11:16:03;;;;;;;7.77;4.20;;;24.80;99.90;;;;;;5035552;28;20243;-81
2022/10/30 11:18:28;;;;;;;7.43;4.20;;;24.70;99.90;;;;;;5023745;28;20190;-80
2022/10/30 11:21:28;;;;;;;5.03;3.53;;;25.00;99.90;;;;;;5033101;28;20452;-80
2022/10/30 11:23:54;;;;;;;8.40;3.73;;;25.40;99.90;;;;;;5031434;28;20190;-80
2022/10/30 11:26:19;;;;;;;8.50;4.63;;;25.30;99.90;;;;;;5032104;28;20429;-81
2022/10/30 11:29:17;;;;;;;8.37;4.57;;;25.70;99.90;;;;;;5031415;28;20182;-81
2022/10/30 11:31:44;;;;;;;10.50;4.80;;;25.50;99.90;;;;;;5030250;28;20638;-80
2022/10/30 11:34:18;;;;;;;9.47;4.10;;;25.80;99.90;;;;;;5031104;28;20447;-80
2022/10/30 11:36:44;;;;;;;8.97;4.40;;;25.60;99.90;;;;;;5022576;28;20428;-81
2022/10/30 11:39:17;;;;;;;8.93;4.57;;;25.40;99.90;;;;;;5033351;28;20475;-81
2022/10/30 11:41:49;;;;;;;6.63;3.57;;;25.30;99.90;;;;;;5028434;28;20428;-82
2022/10/30 11:44:14;;;;;;;14.17;4.30;;;25.30;99.90;;;;;;5031946;28;20424;-82
2022/10/30 11:46:40;;;;;;;7.33;4.17;;;25.20;99.90;;;;;;5026417;28;20433;-82
2022/10/30 11:49:21;;;;;;;10.37;4.83;;;25.10;99.90;;;;;;4998296;28;20540;-81
2022/10/30 11:51:47;;;;;;;11.53;4.30;;;25.00;99.90;;;;;;5030859;28;20978;-81
2022/10/30 11:54:20;;;;;;;7.43;3.60;;;25.00;99.90;;;;;;5033499;28;20465;-82
2022/10/30 11:56:47;;;;;;;9.90;4.07;;;25.00;99.90;;;;;;5033104;28;20197;-81
2022/10/30 11:59:18;;;;;;;18.33;5.60;;;25.00;99.90;;;;;;5023848;28;20418;-82
2022/10/30 12:02:17;;;;;;;8.40;4.10;;;25.10;99.90;;;;;;5032801;28;20435;-82
2022/10/30 12:04:42;;;;;;;8.87;4.40;;;25.00;99.90;;;;;;5031132;28;20791;-82
2022/10/30 12:07:29;;;;;;;9.33;4.10;;;25.10;99.90;;;;;;5016232;28;20413;-82
2022/10/30 12:09:56;;;;;;;7.97;5.10;;;25.20;99.90;;;;;;5034677;28;20178;-82
2022/10/30 12:12:37;;;;;;;5.90;4.30;;;25.30;99.90;;;;;;4995097;28;20430;-82
2022/10/30 12:15:14;;;;;;;5.33;4.20;;;25.20;99.90;;;;;;5033475;28;20528;-81
2022/10/30 12:17:40;;;;;;;9.07;4.20;;;25.30;99.90;;;;;;5033425;28;20420;-82
2022/10/30 12:20:12;;;;;;;7.13;4.73;;;25.40;99.90;;;;;;5033081;28;20784;-81
2022/10/30 12:22:38;;;;;;;11.10;5.80;;;25.30;99.90;;;;;;5031858;28;20436;-81
2022/10/30 12:25:23;;;;;;;9.53;4.27;;;25.40;99.90;;;;;;5031854;28;20436;-82
2022/10/30 12:27:56;;;;;;;8.80;4.20;;;25.30;99.90;;;;;;5031191;28;20240;-82
2022/10/30 12:30:22;;;;;;;13.50;4.67;;;25.30;99.90;;;;;;5030503;28;20441;-81
2022/10/30 12:32:55;;;;;;;9.37;4.60;;;25.30;99.90;;;;;;5033037;28;21154;-86
2022/10/30 12:35:36;;;;;;;11.93;4.33;;;25.40;99.90;;;;;;5033298;28;20432;-83
2022/10/30 12:38:06;;;;;;;11.60;5.20;;;25.50;99.90;;;;;;5038980;28;20432;-84
2022/10/30 12:40:41;;;;;;;11.90;4.63;;;25.50;99.90;;;;;;5032175;28;20476;-83
2022/10/30 12:43:18;;;;;;;11.57;5.50;;;25.50;99.90;;;;;;5034189;28;20511;-84
2022/10/30 12:45:47;;;;;;;10.10;4.90;;;25.50;99.90;;;;;;5033793;28;20843;-84
2022/10/30 12:48:36;;;;;;;13.10;5.07;;;25.80;99.90;;;;;;5033400;28;20864;-85
2022/10/30 12:51:27;;;;;;;9.73;4.93;;;25.90;99.90;;;;;;5032027;28;20456;-84
2022/10/30 12:54:14;;;;;;;11.00;5.47;;;26.20;99.90;;;;;;5029599;28;20453;-84